Terminal Aerodrome Forecast
Issued by NWS Boston, MA

Home | Current Version | Previous Version | Text Only | Print | Product List | Glossary On
Versions: 1 2 3 4 5 6 7 8 9 10 11 12 13 14 15 16 17 18 19 20 21 22 23 24 25 26 27 28 29 30 31 32 33 34 35 36 37 38 39 40 41 42 43 44 45
000
FTUS41 KBOX 221728
TAFBOS
TAF
KBOS 221728Z 2218/2324 05005KT P6SM OVC025
      TEMPO 2218/2220 4SM -SHRA OVC015
     FM222200 07006KT P6SM OVC015
     FM230500 10009KT 5SM -SHRA OVC008
     FM231500 09010KT 2SM -RA BR OVC008
     FM231800 08010KT 3SM -RA BR OVC012=

USA.gov is the U.S. government's official web portal to all federal, state and local government web resources and services.